Time;durP1;ratioP1;P1;durP2;ratioP2;P2;SDS_P1;SDS_P2;PMS_P1;PMS_P2;Temp;Humidity;BMP_temperature;BMP_pressure;BME280_temperature;BME280_humidity;BME280_pressure;Samples;Min_cycle;Max_cycle;Signal;HPM_P1;HPM_P2
2022/03/30 00:01:06;;;;;;;30.95;16.23;;;5.30;99.90;;;;;;4931669;29;20054;-61
2022/03/30 00:03:32;;;;;;;31.63;16.42;;;5.20;99.90;;;;;;4930244;29;20067;-60
2022/03/30 00:05:57;;;;;;;30.48;16.77;;;5.20;99.90;;;;;;4931399;28;21231;-60
2022/03/30 00:08:23;;;;;;;31.58;17.25;;;5.20;99.90;;;;;;4932355;29;20118;-60
2022/03/30 00:10:49;;;;;;;32.85;16.98;;;5.20;99.90;;;;;;4914782;29;20043;-60
2022/03/30 00:13:15;;;;;;;30.42;16.50;;;5.30;99.90;;;;;;4938391;28;20051;-61
2022/03/30 00:15:41;;;;;;;29.33;16.17;;;5.20;99.90;;;;;;4927640;28;20134;-62
2022/03/30 00:18:08;;;;;;;35.90;16.52;;;5.30;99.90;;;;;;4922047;29;20055;-60
2022/03/30 00:20:34;;;;;;;32.03;16.05;;;5.30;99.90;;;;;;4929117;28;20047;-60
2022/03/30 00:22:59;;;;;;;31.50;15.95;;;5.30;99.90;;;;;;4937856;28;20589;-61
2022/03/30 00:25:25;;;;;;;29.33;14.85;;;5.30;99.90;;;;;;4949277;28;20055;-62
2022/03/30 00:27:51;;;;;;;35.05;16.48;;;5.30;99.90;;;;;;4917199;29;20047;-62
2022/03/30 00:30:19;;;;;;;25.50;15.35;;;5.30;99.90;;;;;;4931112;29;20114;-60
2022/03/30 00:32:45;;;;;;;28.73;15.10;;;5.30;99.90;;;;;;4945721;28;20415;-62
2022/03/30 00:35:12;;;;;;;32.00;15.98;;;5.30;99.90;;;;;;4932102;28;20042;-61
2022/03/30 00:37:39;;;;;;;32.80;16.60;;;5.30;99.90;;;;;;4922340;29;20142;-62
2022/03/30 00:40:08;;;;;;;31.25;16.45;;;5.30;99.90;;;;;;4924304;29;20047;-61
2022/03/30 00:42:34;;;;;;;37.83;16.75;;;5.30;99.90;;;;;;4932768;28;20545;-60
2022/03/30 00:45:11;;;;;;;31.88;15.90;;;5.30;99.90;;;;;;4932903;28;20133;-61
2022/03/30 00:47:37;;;;;;;30.92;16.60;;;5.30;99.90;;;;;;4909003;29;20047;-60
2022/03/30 00:50:05;;;;;;;30.92;17.25;;;5.30;99.90;;;;;;4934967;28;20149;-60
2022/03/30 00:52:31;;;;;;;34.33;16.45;;;5.30;99.90;;;;;;4922861;29;20050;-60
2022/03/30 00:54:58;;;;;;;36.05;15.27;;;5.30;99.90;;;;;;4930531;29;20363;-60
2022/03/30 00:57:24;;;;;;;33.03;17.15;;;5.30;99.90;;;;;;4917593;29;20504;-60
2022/03/30 00:59:51;;;;;;;35.28;16.13;;;5.30;99.90;;;;;;4926374;29;20072;-61
2022/03/30 01:02:17;;;;;;;33.08;17.20;;;5.30;99.90;;;;;;4917280;29;20540;-60
2022/03/30 01:04:46;;;;;;;33.50;16.38;;;5.40;99.90;;;;;;4936144;28;20102;-61
2022/03/30 01:07:13;;;;;;;36.38;15.93;;;5.30;99.90;;;;;;4939927;28;20047;-61
2022/03/30 01:09:39;;;;;;;34.33;17.35;;;5.40;99.90;;;;;;4942461;29;20494;-62
2022/03/30 01:12:10;;;;;;;32.53;16.67;;;5.40;99.90;;;;;;4931088;29;20048;-60
2022/03/30 01:14:37;;;;;;;36.65;15.73;;;5.40;99.90;;;;;;4923960;29;20055;-60
2022/03/30 01:17:04;;;;;;;34.03;16.60;;;5.40;99.90;;;;;;4934956;29;20426;-60
2022/03/30 01:19:32;;;;;;;37.05;16.92;;;5.50;99.90;;;;;;4950552;28;20039;-61
2022/03/30 01:21:59;;;;;;;36.05;16.13;;;5.50;99.90;;;;;;4936703;29;20651;-61
2022/03/30 01:24:26;;;;;;;35.38;16.60;;;5.50;99.90;;;;;;4933605;28;20540;-61
2022/03/30 01:26:52;;;;;;;36.63;16.45;;;5.50;99.90;;;;;;4940332;28;20056;-60
2022/03/30 01:34:48;;;;;;;29.67;15.98;;;5.60;99.90;;;;;;4932007;29;20133;-61
2022/03/30 01:37:15;;;;;;;30.67;15.98;;;5.60;99.90;;;;;;4944661;28;20069;-61
2022/03/30 01:39:41;;;;;;;38.67;17.55;;;5.60;99.90;;;;;;4931041;28;20416;-60
2022/03/30 01:42:09;;;;;;;35.40;15.88;;;5.70;99.90;;;;;;4943318;28;20050;-61
2022/03/30 01:44:36;;;;;;;33.42;15.25;;;5.60;99.90;;;;;;4929800;29;20256;-61
2022/03/30 01:47:02;;;;;;;32.10;15.85;;;5.60;99.90;;;;;;4928270;28;20397;-60
2022/03/30 01:49:28;;;;;;;37.70;15.65;;;5.70;99.90;;;;;;4932304;28;20503;-61
2022/03/30 01:51:57;;;;;;;31.90;16.00;;;5.70;99.90;;;;;;4946637;28;20047;-61
2022/03/30 01:54:25;;;;;;;40.42;16.50;;;5.70;99.90;;;;;;4929929;28;20327;-60
2022/03/30 01:56:53;;;;;;;43.65;18.50;;;5.70;99.90;;;;;;4922598;29;20043;-60
2022/03/30 01:59:19;;;;;;;32.30;16.60;;;5.70;99.90;;;;;;4927423;29;20147;-61
2022/03/30 02:01:45;;;;;;;43.42;17.42;;;5.70;99.90;;;;;;4932826;29;20106;-61
2022/03/30 02:04:13;;;;;;;33.72;16.83;;;5.70;99.90;;;;;;4948868;28;20051;-60
2022/03/30 02:06:39;;;;;;;37.92;17.08;;;5.70;99.90;;;;;;4931906;29;20063;-62
2022/03/30 02:09:06;;;;;;;33.13;16.45;;;5.70;99.90;;;;;;4930683;29;20043;-61
2022/03/30 02:11:32;;;;;;;31.60;17.23;;;5.70;99.90;;;;;;4933906;28;20055;-61
2022/03/30 02:13:58;;;;;;;33.75;16.10;;;5.70;99.90;;;;;;4933665;28;20453;-61
2022/03/30 02:16:24;;;;;;;35.35;16.13;;;5.70;99.90;;;;;;4913123;28;20082;-61
2022/03/30 02:18:51;;;;;;;30.13;15.05;;;5.70;99.90;;;;;;4933260;29;20126;-61
2022/03/30 02:21:17;;;;;;;28.95;13.57;;;5.70;99.90;;;;;;4936299;28;20048;-60
2022/03/30 02:23:47;;;;;;;17.55;9.23;;;5.70;99.90;;;;;;4939489;29;20047;-60
2022/03/30 02:26:16;;;;;;;11.50;5.40;;;5.70;99.90;;;;;;4934462;29;20070;-62
2022/03/30 02:28:44;;;;;;;6.55;3.55;;;5.70;99.90;;;;;;4951444;28;20502;-61
2022/03/30 02:31:11;;;;;;;4.95;2.65;;;5.70;99.90;;;;;;4935045;29;20523;-62
2022/03/30 02:33:37;;;;;;;4.75;2.33;;;5.80;99.90;;;;;;4932787;29;20065;-61
2022/03/30 02:36:04;;;;;;;7.32;2.05;;;5.80;99.90;;;;;;4929361;29;20039;-61
2022/03/30 02:38:30;;;;;;;5.65;1.80;;;5.80;99.90;;;;;;4930312;29;20036;-62
2022/03/30 02:40:56;;;;;;;4.78;1.80;;;5.80;99.90;;;;;;4941225;29;20129;-62
2022/03/30 02:43:22;;;;;;;6.63;1.60;;;5.80;99.90;;;;;;4927617;29;20048;-61
2022/03/30 02:45:49;;;;;;;4.40;1.50;;;5.80;99.90;;;;;;4937766;29;20199;-61
2022/03/30 02:48:18;;;;;;;2.22;1.27;;;5.80;99.90;;;;;;4946427;28;20480;-60
2022/03/30 02:50:55;;;;;;;2.45;1.20;;;5.80;99.90;;;;;;4929295;28;20043;-61
2022/03/30 02:53:21;;;;;;;3.83;1.55;;;5.80;99.90;;;;;;4931269;29;20051;-60
2022/03/30 02:55:47;;;;;;;6.35;1.83;;;5.80;99.90;;;;;;4928571;28;20497;-61
2022/03/30 02:58:14;;;;;;;7.68;1.60;;;5.80;99.90;;;;;;4933081;29;20036;-60
2022/03/30 03:00:41;;;;;;;2.55;1.33;;;5.70;99.90;;;;;;4914142;29;20095;-62
2022/03/30 03:03:07;;;;;;;4.90;1.40;;;5.70;99.90;;;;;;4930217;29;20157;-62
2022/03/30 03:05:37;;;;;;;5.78;1.27;;;5.70;99.90;;;;;;4920414;29;20164;-61
2022/03/30 03:08:06;;;;;;;5.22;1.20;;;5.70;99.90;;;;;;4928410;29;20273;-61
2022/03/30 03:10:34;;;;;;;2.20;0.98;;;5.70;99.90;;;;;;4930482;29;20095;-62
2022/03/30 03:13:03;;;;;;;3.10;1.00;;;5.70;99.90;;;;;;4932630;29;20452;-61
2022/03/30 03:15:30;;;;;;;6.68;1.20;;;5.70;99.90;;;;;;4914383;29;20478;-62
2022/03/30 03:17:56;;;;;;;5.68;1.02;;;5.70;99.90;;;;;;4931982;28;20044;-60
2022/03/30 03:20:22;;;;;;;2.78;1.10;;;5.70;99.90;;;;;;4945381;28;20288;-61
2022/03/30 03:22:48;;;;;;;2.80;1.08;;;5.70;99.90;;;;;;4930049;29;20059;-60
2022/03/30 03:25:14;;;;;;;4.45;1.00;;;5.70;99.90;;;;;;4932952;29;20106;-61
2022/03/30 03:27:40;;;;;;;2.25;0.90;;;5.60;99.90;;;;;;4930900;28;20426;-62
2022/03/30 03:30:07;;;;;;;1.60;0.98;;;5.60;99.90;;;;;;4930199;29;20054;-62
2022/03/30 03:32:33;;;;;;;1.60;0.70;;;5.60;99.90;;;;;;4947051;28;20078;-60
2022/03/30 03:34:59;;;;;;;2.35;0.80;;;5.60;99.90;;;;;;4915888;29;20082;-61
2022/03/30 03:37:25;;;;;;;1.88;1.00;;;5.60;99.90;;;;;;4920506;29;20454;-62
2022/03/30 03:39:51;;;;;;;2.83;0.70;;;5.50;99.90;;;;;;4933154;28;20058;-60
2022/03/30 03:42:17;;;;;;;1.98;0.77;;;5.50;99.90;;;;;;4932210;29;20051;-61
2022/03/30 03:44:43;;;;;;;1.27;0.68;;;5.50;99.90;;;;;;4927594;28;20059;-62
2022/03/30 03:47:09;;;;;;;0.80;0.60;;;5.40;99.90;;;;;;4926486;28;20254;-61
2022/03/30 03:49:36;;;;;;;1.40;0.55;;;5.40;99.90;;;;;;4928484;28;20070;-61
2022/03/30 03:52:04;;;;;;;2.63;0.80;;;5.40;99.90;;;;;;4929341;28;20036;-62
2022/03/30 03:54:30;;;;;;;0.60;0.60;;;5.30;99.90;;;;;;4929122;28;20114;-62
2022/03/30 03:56:55;;;;;;;1.58;0.80;;;5.30;99.90;;;;;;4935895;29;20506;-61
2022/03/30 03:59:21;;;;;;;3.88;0.80;;;5.30;99.90;;;;;;4922924;29;20139;-60
2022/03/30 04:01:47;;;;;;;1.58;0.73;;;5.30;99.90;;;;;;4928414;28;20044;-61
2022/03/30 04:04:13;;;;;;;2.63;0.80;;;5.30;99.90;;;;;;4929118;29;20048;-61
2022/03/30 04:06:38;;;;;;;2.95;0.60;;;5.30;99.90;;;;;;4895164;29;21933;-62
2022/03/30 04:09:04;;;;;;;2.05;0.80;;;5.20;99.90;;;;;;4931092;28;20054;-62
2022/03/30 04:11:30;;;;;;;3.40;0.90;;;5.20;99.90;;;;;;4934583;29;20039;-62
2022/03/30 04:13:56;;;;;;;0.85;0.77;;;5.20;99.90;;;;;;4939639;29;20552;-62
2022/03/30 04:16:23;;;;;;;2.60;0.70;;;5.20;99.90;;;;;;4928769;29;20043;-60
2022/03/30 04:18:49;;;;;;;3.60;1.00;;;5.20;99.90;;;;;;4914897;29;20043;-60
2022/03/30 04:21:15;;;;;;;3.45;0.93;;;5.20;99.90;;;;;;4928253;29;20648;-61
2022/03/30 04:23:41;;;;;;;3.00;1.10;;;5.10;99.90;;;;;;4939108;28;20051;-61
2022/03/30 04:26:10;;;;;;;4.35;1.42;;;5.10;99.90;;;;;;4945641;28;20062;-60
2022/03/30 04:28:40;;;;;;;3.63;1.20;;;5.00;99.90;;;;;;4931480;29;20044;-60
2022/03/30 04:31:11;;;;;;;3.53;1.20;;;5.00;99.90;;;;;;4935289;28;20051;-61
2022/03/30 04:33:38;;;;;;;2.90;1.30;;;5.00;99.90;;;;;;4935000;29;20051;-60
2022/03/30 04:36:04;;;;;;;2.92;1.30;;;4.90;99.90;;;;;;4931822;28;20047;-60
2022/03/30 04:38:31;;;;;;;2.58;1.20;;;4.90;99.90;;;;;;4939631;29;20130;-62
2022/03/30 04:40:57;;;;;;;3.03;1.50;;;4.90;99.90;;;;;;4934244;29;20058;-61
2022/03/30 04:43:23;;;;;;;2.95;1.27;;;4.90;99.90;;;;;;4933188;28;20060;-61
2022/03/30 04:45:49;;;;;;;3.25;1.50;;;4.80;99.90;;;;;;4932921;28;20071;-60
2022/03/30 04:48:15;;;;;;;2.08;1.45;;;4.80;99.90;;;;;;4932242;28;20051;-61
2022/03/30 04:50:41;;;;;;;3.33;1.55;;;4.80;99.90;;;;;;4936542;28;20082;-61
2022/03/30 04:53:07;;;;;;;6.07;1.80;;;4.80;99.90;;;;;;4918341;29;20143;-61
2022/03/30 04:55:33;;;;;;;4.53;1.73;;;4.80;99.90;;;;;;4933543;29;20050;-61
2022/03/30 04:57:59;;;;;;;2.40;1.75;;;4.80;99.90;;;;;;4935545;29;20460;-61
2022/03/30 05:00:25;;;;;;;6.68;2.08;;;4.80;99.90;;;;;;4921345;29;20491;-60
2022/03/30 05:02:50;;;;;;;5.85;1.95;;;4.70;99.90;;;;;;4918278;29;20134;-60
2022/03/30 05:05:16;;;;;;;2.80;1.70;;;4.70;99.90;;;;;;4948628;28;20051;-60
2022/03/30 05:07:42;;;;;;;5.05;1.70;;;4.70;99.90;;;;;;4915212;29;20048;-60
2022/03/30 05:10:12;;;;;;;3.55;1.73;;;4.60;99.90;;;;;;4930401;28;20066;-61
2022/03/30 05:12:38;;;;;;;3.72;1.60;;;4.60;99.90;;;;;;4945831;28;20514;-60
2022/03/30 05:15:05;;;;;;;4.25;1.60;;;4.60;99.90;;;;;;4936836;28;20564;-60
2022/03/30 05:17:30;;;;;;;2.45;1.52;;;4.60;99.90;;;;;;4935588;29;20567;-61
2022/03/30 05:19:56;;;;;;;6.70;1.50;;;4.50;99.90;;;;;;4930091;28;20056;-61
2022/03/30 05:22:22;;;;;;;4.57;1.70;;;4.50;99.90;;;;;;4916639;29;20198;-61
2022/03/30 05:24:48;;;;;;;5.15;1.80;;;4.50;99.90;;;;;;4932549;28;20051;-60
2022/03/30 05:27:14;;;;;;;3.28;1.70;;;4.50;99.90;;;;;;4932571;28;20110;-61
2022/03/30 05:29:40;;;;;;;6.22;1.80;;;4.50;99.90;;;;;;4926257;29;20048;-60
2022/03/30 05:32:06;;;;;;;3.80;1.65;;;4.50;99.90;;;;;;4928168;28;20055;-62
2022/03/30 05:34:32;;;;;;;4.15;1.95;;;4.50;99.90;;;;;;4948361;28;20112;-61
2022/03/30 05:36:58;;;;;;;2.67;1.63;;;4.50;99.90;;;;;;4927234;28;20054;-60
2022/03/30 05:39:24;;;;;;;4.72;1.90;;;4.50;99.90;;;;;;4929392;28;20039;-62
2022/03/30 05:41:52;;;;;;;3.58;1.85;;;4.40;99.90;;;;;;4928929;28;20047;-61
2022/03/30 05:44:18;;;;;;;4.22;1.95;;;4.40;99.90;;;;;;4919168;29;20074;-61
2022/03/30 05:46:44;;;;;;;4.95;1.70;;;4.40;99.90;;;;;;4937401;28;20122;-62
2022/03/30 05:49:10;;;;;;;4.68;1.65;;;4.40;99.90;;;;;;4929595;29;20431;-61
2022/03/30 05:51:36;;;;;;;6.80;2.03;;;4.40;99.90;;;;;;4932609;28;20050;-61
2022/03/30 05:54:03;;;;;;;3.00;1.75;;;4.40;99.90;;;;;;4942544;29;20051;-60
2022/03/30 05:59:15;;;;;;;4.38;1.60;;;4.40;99.90;;;;;;4938654;29;20126;-60
2022/03/30 06:01:41;;;;;;;3.00;1.80;;;4.40;99.90;;;;;;4929669;28;20514;-61
2022/03/30 06:04:07;;;;;;;4.25;1.83;;;4.50;99.90;;;;;;4931265;28;20090;-60
2022/03/30 06:06:34;;;;;;;4.97;2.00;;;4.50;99.90;;;;;;4921698;29;20170;-60
2022/03/30 06:09:03;;;;;;;4.05;1.83;;;4.50;99.90;;;;;;4917457;29;20055;-60
2022/03/30 06:11:29;;;;;;;4.47;2.17;;;4.50;99.90;;;;;;4931417;28;20070;-61
2022/03/30 06:13:58;;;;;;;4.32;1.80;;;4.50;99.90;;;;;;4920233;29;20053;-61
2022/03/30 06:16:25;;;;;;;4.53;1.83;;;4.50;99.90;;;;;;4926243;29;20494;-61
2022/03/30 06:18:51;;;;;;;5.65;2.03;;;4.50;99.90;;;;;;4935114;28;20043;-61
2022/03/30 06:21:17;;;;;;;3.65;1.95;;;4.50;99.90;;;;;;4926050;29;20158;-61
2022/03/30 06:23:43;;;;;;;5.75;2.05;;;4.60;99.90;;;;;;4926405;29;20122;-61
2022/03/30 06:26:09;;;;;;;4.30;1.90;;;4.50;99.90;;;;;;4934512;28;20059;-61
2022/03/30 06:28:34;;;;;;;3.33;2.22;;;4.60;99.90;;;;;;4929223;28;20613;-61
2022/03/30 06:31:01;;;;;;;4.93;2.10;;;4.60;99.90;;;;;;4933303;29;20051;-61
2022/03/30 06:33:27;;;;;;;6.00;2.25;;;4.60;99.90;;;;;;4931349;29;20051;-60
2022/03/30 06:35:53;;;;;;;6.28;1.90;;;4.60;99.90;;;;;;4934778;28;20057;-61
2022/03/30 06:38:19;;;;;;;3.45;2.08;;;4.60;99.90;;;;;;4932154;29;20051;-62
2022/03/30 06:40:47;;;;;;;5.80;2.28;;;4.60;99.90;;;;;;4941427;29;20482;-62
2022/03/30 06:43:16;;;;;;;8.90;2.15;;;4.70;99.90;;;;;;4929252;29;20051;-62
2022/03/30 06:45:44;;;;;;;8.93;2.30;;;4.70;99.90;;;;;;4933847;29;20074;-62
2022/03/30 06:48:11;;;;;;;4.60;2.25;;;4.70;99.90;;;;;;4925316;29;20044;-62
2022/03/30 06:50:38;;;;;;;5.25;2.35;;;4.80;99.90;;;;;;4929181;28;20055;-62
2022/03/30 06:53:06;;;;;;;8.32;2.40;;;4.80;99.90;;;;;;4932376;28;20101;-60
2022/03/30 06:55:32;;;;;;;9.30;2.58;;;4.90;99.90;;;;;;4933194;29;20090;-62
2022/03/30 06:57:58;;;;;;;4.75;2.10;;;5.00;99.90;;;;;;4929431;28;20476;-62
2022/03/30 07:00:23;;;;;;;4.75;2.00;;;4.90;99.90;;;;;;4932016;28;20052;-62
2022/03/30 07:02:49;;;;;;;4.13;2.30;;;5.00;99.90;;;;;;4923672;28;20056;-62
2022/03/30 07:05:15;;;;;;;8.18;2.22;;;5.10;99.90;;;;;;4927653;28;20066;-61
2022/03/30 07:10:27;;;;;;;6.47;2.25;;;5.20;99.90;;;;;;4937013;28;20047;-62
2022/03/30 07:12:53;;;;;;;7.75;2.25;;;5.30;99.90;;;;;;4928595;28;20832;-61
2022/03/30 07:15:20;;;;;;;5.72;2.10;;;5.30;99.90;;;;;;4930736;28;20457;-61
2022/03/30 07:17:51;;;;;;;6.70;1.98;;;5.40;99.90;;;;;;4925448;28;20846;-62
2022/03/30 07:20:19;;;;;;;7.97;2.40;;;5.40;99.90;;;;;;4931232;28;20118;-61
2022/03/30 07:22:47;;;;;;;6.88;2.13;;;5.50;99.90;;;;;;4931969;28;20078;-61
2022/03/30 07:25:15;;;;;;;5.72;2.10;;;5.60;99.90;;;;;;4927760;28;20150;-61
2022/03/30 07:27:46;;;;;;;4.25;1.88;;;5.70;99.90;;;;;;4915479;29;20051;-62
2022/03/30 07:30:13;;;;;;;6.72;1.98;;;5.70;99.90;;;;;;4929362;28;20503;-62
2022/03/30 07:32:45;;;;;;;9.70;1.95;;;5.80;99.90;;;;;;4928059;28;20114;-62
2022/03/30 07:35:13;;;;;;;8.10;2.17;;;5.80;99.90;;;;;;4936164;28;20522;-62
2022/03/30 07:37:39;;;;;;;6.72;1.80;;;5.90;99.90;;;;;;4933172;28;20045;-61
2022/03/30 07:40:07;;;;;;;5.25;1.77;;;6.00;99.90;;;;;;4937979;28;20075;-62
2022/03/30 07:42:33;;;;;;;5.85;1.60;;;6.00;99.90;;;;;;4930640;28;20044;-61
2022/03/30 07:44:59;;;;;;;4.32;1.60;;;6.10;99.90;;;;;;4938235;28;20440;-62
2022/03/30 07:47:29;;;;;;;12.95;1.80;;;6.20;99.90;;;;;;4929937;28;20083;-62
2022/03/30 07:49:55;;;;;;;5.80;1.60;;;6.20;99.90;;;;;;4930070;28;20043;-61
2022/03/30 07:52:21;;;;;;;5.00;1.40;;;6.30;99.90;;;;;;4918866;28;20043;-61
2022/03/30 07:54:52;;;;;;;7.00;1.52;;;6.30;99.90;;;;;;4926898;28;20051;-61
2022/03/30 07:57:25;;;;;;;6.32;1.75;;;6.30;99.90;;;;;;4937204;28;20097;-61
2022/03/30 07:59:51;;;;;;;8.52;1.65;;;6.30;99.90;;;;;;4929128;28;20407;-61
2022/03/30 08:02:18;;;;;;;4.40;1.60;;;6.40;99.90;;;;;;4927426;28;20046;-61
2022/03/30 08:04:44;;;;;;;6.65;1.75;;;6.30;99.90;;;;;;4918978;28;20406;-62
2022/03/30 08:07:10;;;;;;;9.57;2.00;;;6.30;99.90;;;;;;4932546;28;20047;-61
2022/03/30 08:09:36;;;;;;;6.38;1.40;;;6.30;99.90;;;;;;4936122;28;20055;-62
2022/03/30 08:12:03;;;;;;;7.82;1.50;;;6.20;99.90;;;;;;4913801;28;20070;-62
2022/03/30 08:14:29;;;;;;;8.45;2.55;;;6.20;99.90;;;;;;4933420;28;20051;-62
2022/03/30 08:16:55;;;;;;;6.65;1.70;;;6.20;99.90;;;;;;4931256;28;20081;-61
2022/03/30 08:19:21;;;;;;;6.55;1.25;;;6.20;99.90;;;;;;4948293;28;20039;-61
2022/03/30 08:24:31;;;;;;;9.10;1.35;;;6.20;99.90;;;;;;4931530;28;20058;-61
2022/03/30 08:26:57;;;;;;;3.58;1.10;;;6.30;99.90;;;;;;4927838;28;20289;-61
2022/03/30 08:29:23;;;;;;;3.28;1.08;;;6.30;99.90;;;;;;4911761;28;20501;-61
2022/03/30 08:31:49;;;;;;;2.67;1.02;;;6.30;99.90;;;;;;4926437;28;20130;-62
2022/03/30 08:34:16;;;;;;;3.03;1.00;;;6.40;99.90;;;;;;4916721;28;20490;-61
2022/03/30 08:36:42;;;;;;;6.68;1.20;;;6.40;99.90;;;;;;4934714;28;20102;-61
2022/03/30 08:39:11;;;;;;;2.63;1.10;;;6.50;99.90;;;;;;4934638;28;20093;-62
2022/03/30 08:41:45;;;;;;;3.97;1.08;;;6.50;99.90;;;;;;4917504;28;20130;-61
2022/03/30 08:44:14;;;;;;;5.32;1.20;;;6.60;99.90;;;;;;4931584;28;20135;-62
2022/03/30 08:46:42;;;;;;;3.05;1.25;;;6.70;99.90;;;;;;4935539;28;20054;-61
2022/03/30 08:49:08;;;;;;;3.53;1.10;;;6.70;99.90;;;;;;4934568;28;20112;-61
2022/03/30 08:51:38;;;;;;;5.53;1.05;;;6.80;99.90;;;;;;4927966;28;20090;-61
2022/03/30 08:54:05;;;;;;;3.42;1.20;;;6.80;99.90;;;;;;4932248;28;20370;-62
2022/03/30 08:56:31;;;;;;;4.88;1.30;;;6.90;99.90;;;;;;4946115;28;20055;-62
2022/03/30 08:59:04;;;;;;;4.93;1.20;;;6.90;99.90;;;;;;4919000;29;20048;-61
2022/03/30 09:01:33;;;;;;;;;;;6.90;99.90;;;;;;4935507;28;20525;-61
2022/03/30 09:04:01;;;;;;;4.13;0.90;;;6.90;99.90;;;;;;4931785;28;19918;-62
2022/03/30 09:06:41;;;;;;;7.72;1.38;;;7.00;99.90;;;;;;4938842;28;20051;-62
2022/03/30 09:09:08;;;;;;;4.07;1.20;;;7.10;99.90;;;;;;4927771;28;20118;-62
2022/03/30 09:11:52;;;;;;;5.03;1.20;;;7.20;99.90;;;;;;4927228;28;20058;-63
2022/03/30 09:14:20;;;;;;;3.67;1.00;;;7.20;99.90;;;;;;4938322;28;20047;-62
2022/03/30 09:16:50;;;;;;;3.03;0.82;;;7.20;99.90;;;;;;4930627;28;20093;-62
2022/03/30 09:19:17;;;;;;;5.97;1.30;;;7.30;99.90;;;;;;4923691;29;20102;-62
2022/03/30 09:21:44;;;;;;;6.75;1.05;;;7.30;99.90;;;;;;4928620;28;20051;-61
2022/03/30 09:24:11;;;;;;;4.20;1.08;;;7.40;99.90;;;;;;4934327;28;20047;-63
2022/03/30 09:26:38;;;;;;;5.07;0.93;;;7.40;99.90;;;;;;4921329;28;20087;-62
2022/03/30 09:29:05;;;;;;;4.20;1.08;;;7.40;99.90;;;;;;4947029;28;20051;-63
2022/03/30 09:31:31;;;;;;;4.50;1.10;;;7.50;99.90;;;;;;4934652;28;20493;-61
2022/03/30 09:34:05;;;;;;;3.00;1.00;;;7.50;99.90;;;;;;4931521;28;20047;-62
2022/03/30 09:36:37;;;;;;;5.05;0.95;;;7.60;99.90;;;;;;4934587;28;20039;-62
2022/03/30 09:39:04;;;;;;;5.82;0.98;;;7.70;99.90;;;;;;4938727;28;20047;-62
2022/03/30 09:41:51;;;;;;;9.43;1.08;;;7.80;99.90;;;;;;4931553;28;20050;-62
2022/03/30 09:44:18;;;;;;;3.47;1.00;;;7.80;99.90;;;;;;4932154;29;20044;-62
2022/03/30 09:46:58;;;;;;;6.20;0.90;;;7.90;99.90;;;;;;4933647;28;20055;-62
2022/03/30 09:49:34;;;;;;;5.30;1.00;;;8.00;99.80;;;;;;4942189;28;20096;-61
2022/03/30 09:52:00;;;;;;;5.70;0.90;;;8.10;99.60;;;;;;4930965;28;20055;-61
2022/03/30 09:54:40;;;;;;;2.35;0.80;;;8.10;99.20;;;;;;4935384;28;20135;-62
2022/03/30 09:57:20;;;;;;;5.55;0.98;;;8.10;97.60;;;;;;4926548;28;20778;-62
2022/03/30 09:59:55;;;;;;;5.85;1.42;;;8.20;97.90;;;;;;4938098;28;20134;-61
2022/03/30 10:02:21;;;;;;;6.65;1.20;;;8.20;98.00;;;;;;4913690;28;20058;-61
2022/03/30 10:04:48;;;;;;;5.45;1.30;;;8.10;97.70;;;;;;4909753;28;20050;-62
2022/03/30 10:07:14;;;;;;;6.97;1.40;;;8.10;97.90;;;;;;4948062;28;20047;-61
2022/03/30 10:09:42;;;;;;;5.30;1.15;;;8.10;97.80;;;;;;4932153;28;20051;-62
2022/03/30 10:12:08;;;;;;;5.32;1.20;;;8.10;98.00;;;;;;4929360;28;20043;-62
2022/03/30 10:14:36;;;;;;;3.28;1.20;;;8.00;98.00;;;;;;4937394;28;20035;-61
2022/03/30 10:17:02;;;;;;;4.18;1.23;;;8.00;98.10;;;;;;4937510;28;20845;-61
2022/03/30 10:19:29;;;;;;;6.68;1.08;;;8.00;98.60;;;;;;4931315;28;20074;-61
2022/03/30 10:22:02;;;;;;;5.30;1.25;;;8.00;98.60;;;;;;4905978;28;20051;-62
2022/03/30 10:24:41;;;;;;;3.63;1.20;;;8.00;98.50;;;;;;4905815;28;20150;-62
2022/03/30 10:27:38;;;;;;;4.00;1.50;;;7.90;98.20;;;;;;4932773;28;20505;-62
2022/03/30 10:30:07;;;;;;;6.50;1.70;;;8.00;98.40;;;;;;4925736;28;20130;-62
2022/03/30 10:32:38;;;;;;;4.13;1.50;;;8.00;99.10;;;;;;4939246;28;20047;-61
2022/03/30 10:35:12;;;;;;;6.65;1.67;;;8.00;99.10;;;;;;4929147;28;20403;-62
2022/03/30 10:37:42;;;;;;;6.03;1.50;;;8.00;99.10;;;;;;4925424;28;20102;-61
2022/03/30 10:40:28;;;;;;;5.63;1.40;;;8.10;99.30;;;;;;4934175;28;20048;-61
2022/03/30 10:42:54;;;;;;;7.20;1.30;;;8.20;96.60;;;;;;4930440;28;20115;-61
2022/03/30 10:45:42;;;;;;;7.65;1.30;;;8.20;98.20;;;;;;4935486;28;20047;-62
2022/03/30 10:48:21;;;;;;;4.30;1.20;;;8.20;97.30;;;;;;4912141;29;20126;-61
2022/03/30 10:51:15;;;;;;;5.55;1.20;;;8.10;96.80;;;;;;4936616;28;20135;-62
2022/03/30 10:53:43;;;;;;;4.90;1.38;;;8.00;96.10;;;;;;4935799;28;20192;-62
2022/03/30 10:56:09;;;;;;;5.30;1.08;;;7.90;96.00;;;;;;4936417;28;20042;-61
2022/03/30 10:58:36;;;;;;;2.63;1.00;;;7.80;95.60;;;;;;4930128;28;20044;-61
2022/03/30 11:01:13;;;;;;;3.13;1.08;;;7.70;96.10;;;;;;4932319;29;20055;-62
2022/03/30 11:04:00;;;;;;;6.32;1.35;;;7.70;95.60;;;;;;4941509;28;20157;-61
2022/03/30 11:06:28;;;;;;;4.63;1.10;;;7.70;95.20;;;;;;4939495;28;20055;-62
2022/03/30 11:08:56;;;;;;;2.72;0.90;;;7.60;94.70;;;;;;4934579;28;20044;-61
2022/03/30 11:11:34;;;;;;;5.95;1.17;;;7.60;94.10;;;;;;4933126;28;20054;-62
2022/03/30 11:14:26;;;;;;;4.80;0.95;;;7.70;94.50;;;;;;4941422;28;20245;-62
2022/03/30 11:16:57;;;;;;;4.40;1.05;;;7.70;93.00;;;;;;4921088;28;20557;-62
2022/03/30 11:19:29;;;;;;;4.82;1.10;;;7.90;93.50;;;;;;4930136;28;20036;-60
2022/03/30 11:22:08;;;;;;;8.82;1.30;;;8.00;93.50;;;;;;4924999;28;20414;-62
2022/03/30 11:24:34;;;;;;;3.00;1.08;;;8.20;93.00;;;;;;4932616;28;20079;-61
2022/03/30 11:27:00;;;;;;;3.95;1.08;;;8.30;92.40;;;;;;4922168;28;20184;-61
2022/03/30 11:29:48;;;;;;;5.40;1.40;;;8.50;91.60;;;;;;4912581;28;20419;-61
2022/03/30 11:32:53;;;;;;;2.55;1.30;;;8.80;91.00;;;;;;4934559;28;20044;-60
2022/03/30 11:35:24;;;;;;;3.97;1.25;;;9.00;90.60;;;;;;4919256;28;20055;-61
2022/03/30 11:38:22;;;;;;;5.15;1.20;;;9.30;90.20;;;;;;4929393;28;20749;-62
2022/03/30 11:40:50;;;;;;;4.32;1.08;;;9.40;87.70;;;;;;4927470;28;20043;-62
2022/03/30 11:43:19;;;;;;;2.95;0.90;;;9.50;86.60;;;;;;4930001;28;20056;-62
2022/03/30 11:45:46;;;;;;;3.40;1.15;;;9.40;85.50;;;;;;4934046;28;20048;-61
2022/03/30 11:48:12;;;;;;;4.47;0.90;;;9.60;86.50;;;;;;4918862;28;20481;-61
2022/03/30 11:50:41;;;;;;;4.15;1.20;;;9.70;84.70;;;;;;4932868;28;20127;-61
2022/03/30 11:53:32;;;;;;;4.82;1.25;;;9.90;84.10;;;;;;4936099;28;20060;-62
2022/03/30 11:56:00;;;;;;;3.85;1.05;;;10.10;83.40;;;;;;4931547;28;20573;-62
2022/03/30 11:58:37;;;;;;;4.95;1.10;;;10.10;81.60;;;;;;4934092;28;20448;-62
2022/03/30 12:01:08;;;;;;;5.18;1.20;;;10.10;80.70;;;;;;4930290;28;21354;-62
2022/03/30 12:03:34;;;;;;;5.97;1.10;;;10.00;80.30;;;;;;4932582;28;20059;-61
2022/03/30 12:06:02;;;;;;;4.05;1.08;;;10.00;80.30;;;;;;4914141;28;20050;-62
2022/03/30 12:08:28;;;;;;;2.08;1.00;;;9.90;79.70;;;;;;4934339;28;20051;-61
2022/03/30 12:10:58;;;;;;;5.72;1.10;;;9.80;78.70;;;;;;4934279;28;20399;-61
2022/03/30 12:13:25;;;;;;;3.83;1.10;;;9.70;77.80;;;;;;4935401;28;20091;-61
2022/03/30 12:16:02;;;;;;;5.30;1.08;;;9.60;78.30;;;;;;4931891;28;20062;-60
2022/03/30 12:18:30;;;;;;;5.60;1.13;;;9.50;76.90;;;;;;4917647;28;20486;-61
2022/03/30 12:21:00;;;;;;;6.20;1.15;;;9.30;77.90;;;;;;4943542;28;20048;-62
2022/03/30 12:23:27;;;;;;;7.18;1.00;;;9.30;78.30;;;;;;4939391;28;20054;-62
2022/03/30 12:25:53;;;;;;;3.65;1.00;;;9.30;79.20;;;;;;4934985;28;20066;-61
2022/03/30 12:28:32;;;;;;;5.65;1.20;;;9.60;79.10;;;;;;4934566;28;20047;-61
2022/03/30 12:30:59;;;;;;;4.13;1.77;;;9.60;78.40;;;;;;4950111;28;20123;-61
2022/03/30 12:33:25;;;;;;;3.65;1.10;;;9.50;78.40;;;;;;4935626;28;20286;-60
2022/03/30 12:35:52;;;;;;;4.30;0.95;;;9.30;78.40;;;;;;4936612;28;20138;-61
2022/03/30 12:38:21;;;;;;;12.52;1.30;;;9.20;78.40;;;;;;4915726;28;20192;-63
2022/03/30 12:40:52;;;;;;;11.45;1.60;;;9.10;78.80;;;;;;4921764;28;20047;-63
2022/03/30 12:43:28;;;;;;;11.27;1.40;;;9.00;79.10;;;;;;4931830;28;20050;-64
2022/03/30 12:45:56;;;;;;;5.95;1.33;;;9.00;79.20;;;;;;4934149;28;20054;-63
2022/03/30 12:48:27;;;;;;;6.43;1.15;;;9.00;79.50;;;;;;4932013;28;20082;-63
2022/03/30 12:50:53;;;;;;;4.53;1.33;;;9.10;79.50;;;;;;4929827;28;20044;-64
2022/03/30 12:53:20;;;;;;;3.60;1.00;;;9.40;79.60;;;;;;4917453;28;20086;-63
2022/03/30 12:55:51;;;;;;;6.82;1.50;;;9.70;77.80;;;;;;4922838;29;20082;-63
2022/03/30 12:58:22;;;;;;;5.35;1.10;;;10.00;76.90;;;;;;4936090;28;20051;-64
2022/03/30 13:00:50;;;;;;;7.45;1.35;;;10.30;76.50;;;;;;4932980;28;20059;-63
2022/03/30 13:03:27;;;;;;;3.67;1.20;;;10.60;74.40;;;;;;4947349;28;20477;-64
2022/03/30 13:06:19;;;;;;;2.60;0.93;;;10.90;73.50;;;;;;4941661;28;20600;-63
2022/03/30 13:09:05;;;;;;;7.72;1.60;;;10.90;73.00;;;;;;4919124;28;20158;-64
2022/03/30 13:11:30;;;;;;;3.47;1.10;;;10.80;72.50;;;;;;4935591;28;20047;-63
2022/03/30 13:13:57;;;;;;;7.20;1.80;;;10.90;71.90;;;;;;4917714;28;20043;-63